sensor_id;sensor_type;location;lat;lon;timestamp;pressure;altitude;pressure_sealevel;temperature
62930;BMP280;49036;42.782;23.108;2022-12-07T00:01:16;-14159.69;;;3.62
62930;BMP280;49036;42.782;23.108;2022-12-07T00:03:44;-14158.84;;;3.59
62930;BMP280;49036;42.782;23.108;2022-12-07T00:06:11;-14158.31;;;3.58
62930;BMP280;49036;42.782;23.108;2022-12-07T00:08:38;-14156.25;;;3.52
62930;BMP280;49036;42.782;23.108;2022-12-07T00:11:05;-14156.94;;;3.54
62930;BMP280;49036;42.782;23.108;2022-12-07T00:13:32;-14152.09;;;3.39
62930;BMP280;49036;42.782;23.108;2022-12-07T00:16:05;-14151.06;;;3.36
62930;BMP280;49036;42.782;23.108;2022-12-07T00:18:31;-14151.06;;;3.36
62930;BMP280;49036;42.782;23.108;2022-12-07T00:21:12;-14148.81;;;3.30
62930;BMP280;49036;42.782;23.108;2022-12-07T00:23:39;-14148.66;;;3.29
62930;BMP280;49036;42.782;23.108;2022-12-07T00:26:19;-14152.28;;;3.40
62930;BMP280;49036;42.782;23.108;2022-12-07T00:28:46;-14153.47;;;3.43
62930;BMP280;49036;42.782;23.108;2022-12-07T00:31:13;-14151.41;;;3.37
62930;BMP280;49036;42.782;23.108;2022-12-07T00:33:39;-14154.53;;;3.46
62930;BMP280;49036;42.782;23.108;2022-12-07T00:36:08;-14156.25;;;3.52
62930;BMP280;49036;42.782;23.108;2022-12-07T00:38:35;-14158.66;;;3.59
62930;BMP280;49036;42.782;23.108;2022-12-07T00:41:12;-14156.59;;;3.53
62930;BMP280;49036;42.782;23.108;2022-12-07T00:43:41;-14153.47;;;3.43
62930;BMP280;49036;42.782;23.108;2022-12-07T00:46:08;-14150.03;;;3.33
62930;BMP280;49036;42.782;23.108;2022-12-07T00:48:34;-14148.31;;;3.28
62930;BMP280;49036;42.782;23.108;2022-12-07T00:51:00;-14145.53;;;3.20
62930;BMP280;49036;42.782;23.108;2022-12-07T00:53:26;-14147.09;;;3.25
62930;BMP280;49036;42.782;23.108;2022-12-07T00:55:52;-14145.38;;;3.19
62930;BMP280;49036;42.782;23.108;2022-12-07T00:58:18;-14144.00;;;3.15
62930;BMP280;49036;42.782;23.108;2022-12-07T01:00:44;-14146.06;;;3.22
62930;BMP280;49036;42.782;23.108;2022-12-07T01:03:12;-14147.44;;;3.26
62930;BMP280;49036;42.782;23.108;2022-12-07T01:05:37;-14145.53;;;3.20
62930;BMP280;49036;42.782;23.108;2022-12-07T01:08:03;-14147.63;;;3.26
62930;BMP280;49036;42.782;23.108;2022-12-07T01:10:29;-14148.31;;;3.28
62930;BMP280;49036;42.782;23.108;2022-12-07T01:12:55;-14144.34;;;3.16
62930;BMP280;49036;42.782;23.108;2022-12-07T01:15:21;-14141.56;;;3.08
62930;BMP280;49036;42.782;23.108;2022-12-07T01:17:46;-14141.91;;;3.09
62930;BMP280;49036;42.782;23.108;2022-12-07T01:20:12;-14140.34;;;3.05
62930;BMP280;49036;42.782;23.108;2022-12-07T01:22:42;-14141.56;;;3.08
62930;BMP280;49036;42.782;23.108;2022-12-07T01:25:10;-14145.19;;;3.19
62930;BMP280;49036;42.782;23.108;2022-12-07T01:27:36;-14147.28;;;3.25
62930;BMP280;49036;42.782;23.108;2022-12-07T01:30:02;-14146.91;;;3.24
62930;BMP280;49036;42.782;23.108;2022-12-07T01:32:29;-14148.13;;;3.28
62930;BMP280;49036;42.782;23.108;2022-12-07T01:34:54;-14146.75;;;3.24
62930;BMP280;49036;42.782;23.108;2022-12-07T01:37:20;-14147.09;;;3.25
62930;BMP280;49036;42.782;23.108;2022-12-07T01:39:48;-14145.88;;;3.21
62930;BMP280;49036;42.782;23.108;2022-12-07T01:42:14;-14145.53;;;3.20
62930;BMP280;49036;42.782;23.108;2022-12-07T01:47:44;-14143.13;;;3.13
62930;BMP280;49036;42.782;23.108;2022-12-07T01:50:10;-14142.44;;;3.11
62930;BMP280;49036;42.782;23.108;2022-12-07T01:52:37;-14144.50;;;3.17
62930;BMP280;49036;42.782;23.108;2022-12-07T01:55:06;-14146.41;;;3.23
62930;BMP280;49036;42.782;23.108;2022-12-07T01:57:34;-14145.88;;;3.21
62930;BMP280;49036;42.782;23.108;2022-12-07T02:00:01;-14145.19;;;3.19
62930;BMP280;49036;42.782;23.108;2022-12-07T02:02:33;-14146.91;;;3.24
62930;BMP280;49036;42.782;23.108;2022-12-07T02:05:02;-14145.03;;;3.18
62930;BMP280;49036;42.782;23.108;2022-12-07T02:07:29;-14145.03;;;3.18
62930;BMP280;49036;42.782;23.108;2022-12-07T02:09:55;-14144.50;;;3.17
62930;BMP280;49036;42.782;23.108;2022-12-07T02:12:22;-14140.00;;;3.04
62930;BMP280;49036;42.782;23.108;2022-12-07T02:14:48;-14139.16;;;3.01
62930;BMP280;49036;42.782;23.108;2022-12-07T02:18:01;-14140.53;;;3.05
62930;BMP280;49036;42.782;23.108;2022-12-07T02:23:59;-14135.88;;;2.92
62930;BMP280;49036;42.782;23.108;2022-12-07T02:31:38;-14125.88;;;2.62
62930;BMP280;49036;42.782;23.108;2022-12-07T02:34:18;-14128.97;;;2.71
62930;BMP280;49036;42.782;23.108;2022-12-07T02:36:53;-14126.91;;;2.65
62930;BMP280;49036;42.782;23.108;2022-12-07T02:41:56;-14127.41;;;2.67
62930;BMP280;49036;42.782;23.108;2022-12-07T02:44:25;-14130.19;;;2.75
62930;BMP280;49036;42.782;23.108;2022-12-07T02:47:00;-14132.41;;;2.81
62930;BMP280;49036;42.782;23.108;2022-12-07T02:49:29;-14136.91;;;2.95
62930;BMP280;49036;42.782;23.108;2022-12-07T02:51:55;-14138.28;;;2.99
62930;BMP280;49036;42.782;23.108;2022-12-07T02:54:21;-14137.59;;;2.97
62930;BMP280;49036;42.782;23.108;2022-12-07T03:00:03;-14137.25;;;2.96
62930;BMP280;49036;42.782;23.108;2022-12-07T03:02:58;-14140.19;;;3.04
62930;BMP280;49036;42.782;23.108;2022-12-07T03:10:40;-14137.78;;;2.97
62930;BMP280;49036;42.782;23.108;2022-12-07T03:15:47;-14143.66;;;3.14
62930;BMP280;49036;42.782;23.108;2022-12-07T03:18:19;-14140.53;;;3.05
62930;BMP280;49036;42.782;23.108;2022-12-07T03:20:46;-14140.00;;;3.04
62930;BMP280;49036;42.782;23.108;2022-12-07T03:23:17;-14134.66;;;2.88
62930;BMP280;49036;42.782;23.108;2022-12-07T03:25:47;-14132.94;;;2.83
62930;BMP280;49036;42.782;23.108;2022-12-07T03:28:18;-14132.25;;;2.81
62930;BMP280;49036;42.782;23.108;2022-12-07T03:30:59;-14135.34;;;2.90
62930;BMP280;49036;42.782;23.108;2022-12-07T03:33:36;-14137.94;;;2.98
62930;BMP280;49036;42.782;23.108;2022-12-07T03:36:07;-14133.28;;;2.84
62930;BMP280;49036;42.782;23.108;2022-12-07T03:38:38;-14130.00;;;2.74
62930;BMP280;49036;42.782;23.108;2022-12-07T03:41:20;-14132.06;;;2.80
62930;BMP280;49036;42.782;23.108;2022-12-07T03:43:48;-14135.34;;;2.90
62930;BMP280;49036;42.782;23.108;2022-12-07T03:48:56;-14136.03;;;2.92
62930;BMP280;49036;42.782;23.108;2022-12-07T03:51:41;-14134.31;;;2.87
62930;BMP280;49036;42.782;23.108;2022-12-07T03:54:19;-14137.25;;;2.96
62930;BMP280;49036;42.782;23.108;2022-12-07T03:56:47;-14140.00;;;3.04
62930;BMP280;49036;42.782;23.108;2022-12-07T03:59:14;-14139.66;;;3.03
62930;BMP280;49036;42.782;23.108;2022-12-07T04:01:44;-14134.50;;;2.87
62930;BMP280;49036;42.782;23.108;2022-12-07T04:04:10;-14134.84;;;2.88
62930;BMP280;49036;42.782;23.108;2022-12-07T04:06:36;-14133.47;;;2.84
62930;BMP280;49036;42.782;23.108;2022-12-07T04:09:02;-14134.66;;;2.88
62930;BMP280;49036;42.782;23.108;2022-12-07T04:11:27;-14134.31;;;2.87
62930;BMP280;49036;42.782;23.108;2022-12-07T04:13:53;-14137.59;;;2.97
62930;BMP280;49036;42.782;23.108;2022-12-07T04:16:37;-14140.00;;;3.04
62930;BMP280;49036;42.782;23.108;2022-12-07T04:19:02;-14138.47;;;2.99
62930;BMP280;49036;42.782;23.108;2022-12-07T04:21:28;-14140.34;;;3.05
62930;BMP280;49036;42.782;23.108;2022-12-07T04:23:53;-14144.16;;;3.16
62930;BMP280;49036;42.782;23.108;2022-12-07T04:26:19;-14144.66;;;3.17
62930;BMP280;49036;42.782;23.108;2022-12-07T04:28:44;-14141.06;;;3.07
62930;BMP280;49036;42.782;23.108;2022-12-07T04:31:09;-14132.59;;;2.82
62930;BMP280;49036;42.782;23.108;2022-12-07T04:33:35;-14135.69;;;2.91
62930;BMP280;49036;42.782;23.108;2022-12-07T04:36:01;-14138.63;;;3.00
62930;BMP280;49036;42.782;23.108;2022-12-07T04:38:27;-14138.97;;;3.01
62930;BMP280;49036;42.782;23.108;2022-12-07T04:40:52;-14140.00;;;3.04
62930;BMP280;49036;42.782;23.108;2022-12-07T04:43:18;-14141.56;;;3.08
62930;BMP280;49036;42.782;23.108;2022-12-07T04:45:47;-14141.06;;;3.07
62930;BMP280;49036;42.782;23.108;2022-12-07T04:48:13;-14143.81;;;3.15
62930;BMP280;49036;42.782;23.108;2022-12-07T04:50:39;-14144.84;;;3.18
62930;BMP280;49036;42.782;23.108;2022-12-07T04:53:05;-14140.72;;;3.06
62930;BMP280;49036;42.782;23.108;2022-12-07T04:55:30;-14136.56;;;2.94
62930;BMP280;49036;42.782;23.108;2022-12-07T04:57:56;-14135.69;;;2.91
62930;BMP280;49036;42.782;23.108;2022-12-07T05:00:21;-14136.22;;;2.93
62930;BMP280;49036;42.782;23.108;2022-12-07T05:02:47;-14136.41;;;2.93
62930;BMP280;49036;42.782;23.108;2022-12-07T05:05:12;-14132.94;;;2.83
62930;BMP280;49036;42.782;23.108;2022-12-07T05:07:38;-14131.56;;;2.79
62930;BMP280;49036;42.782;23.108;2022-12-07T05:10:05;-14126.72;;;2.65
62930;BMP280;49036;42.782;23.108;2022-12-07T05:12:33;-14127.06;;;2.66
62930;BMP280;49036;42.782;23.108;2022-12-07T05:14:59;-14125.00;;;2.59
62930;BMP280;49036;42.782;23.108;2022-12-07T05:17:24;-14121.38;;;2.49
62930;BMP280;49036;42.782;23.108;2022-12-07T05:19:50;-14118.28;;;2.40
62930;BMP280;49036;42.782;23.108;2022-12-07T05:22:16;-14116.88;;;2.36
62930;BMP280;49036;42.782;23.108;2022-12-07T05:24:42;-14109.13;;;2.13
62930;BMP280;49036;42.782;23.108;2022-12-07T05:27:07;-14101.38;;;1.90
62930;BMP280;49036;42.782;23.108;2022-12-07T05:29:32;-14106.88;;;2.06
62930;BMP280;49036;42.782;23.108;2022-12-07T05:31:58;-14108.94;;;2.12
62930;BMP280;49036;42.782;23.108;2022-12-07T05:34:23;-14111.03;;;2.18
62930;BMP280;49036;42.782;23.108;2022-12-07T05:36:49;-14113.44;;;2.25
62930;BMP280;49036;42.782;23.108;2022-12-07T05:39:15;-14113.94;;;2.27
62930;BMP280;49036;42.782;23.108;2022-12-07T05:41:41;-14113.44;;;2.25
62930;BMP280;49036;42.782;23.108;2022-12-07T05:44:25;-14110.84;;;2.18
62930;BMP280;49036;42.782;23.108;2022-12-07T05:46:50;-14112.56;;;2.23
62930;BMP280;49036;42.782;23.108;2022-12-07T05:49:16;-14113.25;;;2.25
62930;BMP280;49036;42.782;23.108;2022-12-07T05:51:41;-14113.59;;;2.26
62930;BMP280;49036;42.782;23.108;2022-12-07T05:54:07;-14115.50;;;2.31
62930;BMP280;49036;42.782;23.108;2022-12-07T05:56:32;-14110.34;;;2.16
62930;BMP280;49036;42.782;23.108;2022-12-07T05:58:58;-14107.41;;;2.08
62930;BMP280;49036;42.782;23.108;2022-12-07T06:01:41;-14109.28;;;2.13
62930;BMP280;49036;42.782;23.108;2022-12-07T06:04:07;-14113.09;;;2.24
62930;BMP280;49036;42.782;23.108;2022-12-07T06:06:33;-14115.00;;;2.30
62930;BMP280;49036;42.782;23.108;2022-12-07T06:08:58;-14111.53;;;2.20
62930;BMP280;49036;42.782;23.108;2022-12-07T06:11:24;-14112.91;;;2.24
62930;BMP280;49036;42.782;23.108;2022-12-07T06:14:07;-14115.50;;;2.31
62930;BMP280;49036;42.782;23.108;2022-12-07T06:16:33;-14116.38;;;2.34
62930;BMP280;49036;42.782;23.108;2022-12-07T06:18:58;-14120.00;;;2.45
62930;BMP280;49036;42.782;23.108;2022-12-07T06:21:24;-14120.00;;;2.45
62930;BMP280;49036;42.782;23.108;2022-12-07T06:23:52;-14126.38;;;2.64
62930;BMP280;49036;42.782;23.108;2022-12-07T06:26:17;-14125.53;;;2.61
62930;BMP280;49036;42.782;23.108;2022-12-07T06:28:43;-14126.91;;;2.65
62930;BMP280;49036;42.782;23.108;2022-12-07T06:31:08;-14127.94;;;2.68
62930;BMP280;49036;42.782;23.108;2022-12-07T06:33:34;-14130.00;;;2.74
62930;BMP280;49036;42.782;23.108;2022-12-07T06:35:59;-14131.72;;;2.79
62930;BMP280;49036;42.782;23.108;2022-12-07T06:38:25;-14132.06;;;2.80
62930;BMP280;49036;42.782;23.108;2022-12-07T06:40:50;-14133.09;;;2.83
62930;BMP280;49036;42.782;23.108;2022-12-07T06:43:16;-14135.19;;;2.89
62930;BMP280;49036;42.782;23.108;2022-12-07T06:45:42;-14137.78;;;2.97
62930;BMP280;49036;42.782;23.108;2022-12-07T06:48:07;-14137.44;;;2.96
62930;BMP280;49036;42.782;23.108;2022-12-07T06:50:33;-14138.63;;;3.00
62930;BMP280;49036;42.782;23.108;2022-12-07T06:52:58;-14142.97;;;3.12
62930;BMP280;49036;42.782;23.108;2022-12-07T06:55:24;-14147.28;;;3.25
62930;BMP280;49036;42.782;23.108;2022-12-07T06:57:49;-14149.50;;;3.32
62930;BMP280;49036;42.782;23.108;2022-12-07T07:00:15;-14153.31;;;3.43
62930;BMP280;49036;42.782;23.108;2022-12-07T07:02:41;-14158.31;;;3.58
62930;BMP280;49036;42.782;23.108;2022-12-07T07:05:07;-14161.06;;;3.66
62930;BMP280;49036;42.782;23.108;2022-12-07T07:07:32;-14167.81;;;3.86
62930;BMP280;49036;42.782;23.108;2022-12-07T07:09:58;-14173.16;;;4.01
62930;BMP280;49036;42.782;23.108;2022-12-07T07:12:23;-14176.09;;;4.10
62930;BMP280;49036;42.782;23.108;2022-12-07T07:14:49;-14179.22;;;4.19
62930;BMP280;49036;42.782;23.108;2022-12-07T07:17:14;-14182.84;;;4.30
62930;BMP280;49036;42.782;23.108;2022-12-07T07:19:40;-14186.63;;;4.41
62930;BMP280;49036;42.782;23.108;2022-12-07T07:22:06;-14192.84;;;4.59
62930;BMP280;49036;42.782;23.108;2022-12-07T07:24:31;-14198.88;;;4.77
62930;BMP280;49036;42.782;23.108;2022-12-07T07:26:57;-14203.38;;;4.90
62930;BMP280;49036;42.782;23.108;2022-12-07T07:29:22;-14204.41;;;4.93
62930;BMP280;49036;42.782;23.108;2022-12-07T07:31:48;-14208.22;;;5.05
62930;BMP280;49036;42.782;23.108;2022-12-07T07:34:13;-14218.59;;;5.35
62930;BMP280;49036;42.782;23.108;2022-12-07T07:36:39;-14227.56;;;5.62
62930;BMP280;49036;42.782;23.108;2022-12-07T07:39:04;-14228.94;;;5.66
62930;BMP280;49036;42.782;23.108;2022-12-07T07:41:30;-14227.75;;;5.62
62930;BMP280;49036;42.782;23.108;2022-12-07T07:43:56;-14225.66;;;5.56
62930;BMP280;49036;42.782;23.108;2022-12-07T07:46:22;-14217.91;;;5.33
62930;BMP280;49036;42.782;23.108;2022-12-07T07:48:47;-14211.84;;;5.15
62930;BMP280;49036;42.782;23.108;2022-12-07T07:51:13;-14209.78;;;5.09
62930;BMP280;49036;42.782;23.108;2022-12-07T07:53:39;-14207.53;;;5.03
62930;BMP280;49036;42.782;23.108;2022-12-07T07:56:04;-14204.41;;;4.93
62930;BMP280;49036;42.782;23.108;2022-12-07T07:58:30;-14205.97;;;4.98
62930;BMP280;49036;42.782;23.108;2022-12-07T08:00:56;-14208.22;;;5.05
62930;BMP280;49036;42.782;23.108;2022-12-07T08:03:21;-14209.09;;;5.07
62930;BMP280;49036;42.782;23.108;2022-12-07T08:05:47;-14214.97;;;5.25
62930;BMP280;49036;42.782;23.108;2022-12-07T08:08:12;-14221.53;;;5.44
62930;BMP280;49036;42.782;23.108;2022-12-07T08:10:38;-14232.22;;;5.75
62930;BMP280;49036;42.782;23.108;2022-12-07T08:13:04;-14249.84;;;6.27
62930;BMP280;49036;42.782;23.108;2022-12-07T08:15:46;-14263.69;;;6.68
62930;BMP280;49036;42.782;23.108;2022-12-07T08:18:13;-14276.28;;;7.05
62930;BMP280;49036;42.782;23.108;2022-12-07T08:20:39;-14287.00;;;7.37
62930;BMP280;49036;42.782;23.108;2022-12-07T08:23:06;-14289.25;;;7.43
62930;BMP280;49036;42.782;23.108;2022-12-07T08:25:32;-14296.84;;;7.66
62930;BMP280;49036;42.782;23.108;2022-12-07T08:27:58;-14299.09;;;7.72
62930;BMP280;49036;42.782;23.108;2022-12-07T08:30:23;-14307.22;;;7.96
62930;BMP280;49036;42.782;23.108;2022-12-07T08:32:49;-14317.94;;;8.28
62930;BMP280;49036;42.782;23.108;2022-12-07T08:35:15;-14328.31;;;8.58
62930;BMP280;49036;42.782;23.108;2022-12-07T08:37:41;-14339.38;;;8.91
62930;BMP280;49036;42.782;23.108;2022-12-07T08:40:08;-14338.00;;;8.87
62930;BMP280;49036;42.782;23.108;2022-12-07T08:42:34;-14340.44;;;8.94
62930;BMP280;49036;42.782;23.108;2022-12-07T08:45:10;-14335.94;;;8.80
62930;BMP280;49036;42.782;23.108;2022-12-07T08:47:39;-14333.00;;;8.72
62930;BMP280;49036;42.782;23.108;2022-12-07T08:50:06;-14332.13;;;8.69
62930;BMP280;49036;42.782;23.108;2022-12-07T08:52:34;-14336.78;;;8.83
62930;BMP280;49036;42.782;23.108;2022-12-07T08:55:01;-14350.63;;;9.24
62930;BMP280;49036;42.782;23.108;2022-12-07T08:57:28;-14357.38;;;9.43
62930;BMP280;49036;42.782;23.108;2022-12-07T08:59:55;-14344.91;;;9.07
62930;BMP280;49036;42.782;23.108;2022-12-07T09:02:21;-14345.09;;;9.07
62930;BMP280;49036;42.782;23.108;2022-12-07T09:04:46;-14341.09;;;8.96
62930;BMP280;49036;42.782;23.108;2022-12-07T09:07:11;-14336.63;;;8.82
62930;BMP280;49036;42.782;23.108;2022-12-07T09:09:37;-14328.31;;;8.58
62930;BMP280;49036;42.782;23.108;2022-12-07T09:12:03;-14328.66;;;8.59
62930;BMP280;49036;42.782;23.108;2022-12-07T09:14:29;-14315.72;;;8.21
62930;BMP280;49036;42.782;23.108;2022-12-07T09:16:54;-14318.63;;;8.30
62930;BMP280;49036;42.782;23.108;2022-12-07T09:19:20;-14323.13;;;8.43
62930;BMP280;49036;42.782;23.108;2022-12-07T09:21:45;-14326.59;;;8.53
62930;BMP280;49036;42.782;23.108;2022-12-07T09:24:12;-14336.97;;;8.83
62930;BMP280;49036;42.782;23.108;2022-12-07T09:26:38;-14347.69;;;9.15
62930;BMP280;49036;42.782;23.108;2022-12-07T09:29:05;-14353.91;;;9.33
62930;BMP280;49036;42.782;23.108;2022-12-07T09:31:31;-14358.25;;;9.46
62930;BMP280;49036;42.782;23.108;2022-12-07T09:34:00;-14359.78;;;9.51
62930;BMP280;49036;42.782;23.108;2022-12-07T09:36:26;-14353.38;;;9.32
62930;BMP280;49036;42.782;23.108;2022-12-07T09:38:52;-14348.22;;;9.17
62930;BMP280;49036;42.782;23.108;2022-12-07T09:41:18;-14335.75;;;8.80
62930;BMP280;49036;42.782;23.108;2022-12-07T09:43:43;-14324.19;;;8.46
62930;BMP280;49036;42.782;23.108;2022-12-07T09:46:15;-14317.25;;;8.26
62930;BMP280;49036;42.782;23.108;2022-12-07T09:48:42;-14314.66;;;8.18
62930;BMP280;49036;42.782;23.108;2022-12-07T09:51:18;-14310.16;;;8.05
62930;BMP280;49036;42.782;23.108;2022-12-07T09:53:46;-14305.00;;;7.89
62930;BMP280;49036;42.782;23.108;2022-12-07T09:56:13;-14305.50;;;7.91
62930;BMP280;49036;42.782;23.108;2022-12-07T09:58:40;-14304.47;;;7.88
62930;BMP280;49036;42.782;23.108;2022-12-07T10:22:20;-14360.31;;;9.52
62930;BMP280;49036;42.782;23.108;2022-12-07T10:24:47;-14352.53;;;9.29
62930;BMP280;49036;42.782;23.108;2022-12-07T10:27:22;-14347.16;;;9.13
62930;BMP280;49036;42.782;23.108;2022-12-07T10:29:52;-14344.22;;;9.05
62930;BMP280;49036;42.782;23.108;2022-12-07T10:34:44;-14351.50;;;9.26
62930;BMP280;49036;42.782;23.108;2022-12-07T10:39:43;-14384.34;;;10.23
62930;BMP280;49036;42.782;23.108;2022-12-07T10:42:23;-14407.19;;;10.90
62930;BMP280;49036;42.782;23.108;2022-12-07T10:44:50;-14414.78;;;11.12
62930;BMP280;49036;42.782;23.108;2022-12-07T10:47:36;-14410.47;;;10.99
62930;BMP280;49036;42.782;23.108;2022-12-07T10:50:14;-14414.78;;;11.12
62930;BMP280;49036;42.782;23.108;2022-12-07T10:53:17;-14418.78;;;11.24
62930;BMP280;49036;42.782;23.108;2022-12-07T11:01:57;-14399.56;;;10.67
62930;BMP280;49036;42.782;23.108;2022-12-07T11:15:25;-14430.53;;;11.58
62930;BMP280;49036;42.782;23.108;2022-12-07T11:37:36;-14446.44;;;12.05
62930;BMP280;49036;42.782;23.108;2022-12-07T11:42:44;-14439.00;;;11.83
62930;BMP280;49036;42.782;23.108;2022-12-07T11:45:17;-14427.94;;;11.51
62930;BMP280;49036;42.782;23.108;2022-12-07T11:55:49;-14431.03;;;11.60
62930;BMP280;49036;42.782;23.108;2022-12-07T12:03:40;-14441.09;;;11.89
62930;BMP280;49036;42.782;23.108;2022-12-07T12:06:07;-14427.06;;;11.48
62930;BMP280;49036;42.782;23.108;2022-12-07T12:08:35;-14419.28;;;11.25
62930;BMP280;49036;42.782;23.108;2022-12-07T12:11:30;-14409.25;;;10.96
62930;BMP280;49036;42.782;23.108;2022-12-07T12:17:01;-14398.88;;;10.65
62930;BMP280;49036;42.782;23.108;2022-12-07T12:20:00;-14390.06;;;10.39
62930;BMP280;49036;42.782;23.108;2022-12-07T12:22:41;-14380.72;;;10.12
62930;BMP280;49036;42.782;23.108;2022-12-07T12:25:19;-14376.03;;;9.98
62930;BMP280;49036;42.782;23.108;2022-12-07T12:27:47;-14373.44;;;9.91
62930;BMP280;49036;42.782;23.108;2022-12-07T12:30:46;-14378.13;;;10.04
62930;BMP280;49036;42.782;23.108;2022-12-07T12:33:30;-14376.91;;;10.01
62930;BMP280;49036;42.782;23.108;2022-12-07T12:46:57;-14377.25;;;10.02
62930;BMP280;49036;42.782;23.108;2022-12-07T12:54:36;-14376.22;;;9.99
62930;BMP280;49036;42.782;23.108;2022-12-07T12:57:28;-14360.31;;;9.52
62930;BMP280;49036;42.782;23.108;2022-12-07T13:15:49;-14309.66;;;8.03
62930;BMP280;49036;42.782;23.108;2022-12-07T13:26:39;-14312.94;;;8.13
62930;BMP280;49036;42.782;23.108;2022-12-07T13:29:20;-14312.06;;;8.10
62930;BMP280;49036;42.782;23.108;2022-12-07T13:31:55;-14316.38;;;8.23
62930;BMP280;49036;42.782;23.108;2022-12-07T13:36:58;-14320.03;;;8.34
62930;BMP280;49036;42.782;23.108;2022-12-07T13:39:26;-14318.28;;;8.29
62930;BMP280;49036;42.782;23.108;2022-12-07T13:41:54;-14320.19;;;8.34
62930;BMP280;49036;42.782;23.108;2022-12-07T13:44:21;-14321.06;;;8.37
62930;BMP280;49036;42.782;23.108;2022-12-07T13:49:31;-14321.56;;;8.38
62930;BMP280;49036;42.782;23.108;2022-12-07T13:52:22;-14325.91;;;8.51
62930;BMP280;49036;42.782;23.108;2022-12-07T13:55:15;-14328.16;;;8.58
62930;BMP280;49036;42.782;23.108;2022-12-07T13:57:44;-14331.25;;;8.67
62930;BMP280;49036;42.782;23.108;2022-12-07T14:00:19;-14326.41;;;8.52
62930;BMP280;49036;42.782;23.108;2022-12-07T14:07:56;-14315.19;;;8.19
62930;BMP280;49036;42.782;23.108;2022-12-07T14:10:29;-14312.25;;;8.11
62930;BMP280;49036;42.782;23.108;2022-12-07T14:12:56;-14307.41;;;7.97
62930;BMP280;49036;42.782;23.108;2022-12-07T14:15:32;-14301.69;;;7.80
62930;BMP280;49036;42.782;23.108;2022-12-07T14:17:59;-14297.38;;;7.67
62930;BMP280;49036;42.782;23.108;2022-12-07T14:23:02;-14282.34;;;7.23
62930;BMP280;49036;42.782;23.108;2022-12-07T14:26:03;-14273.34;;;6.96
62930;BMP280;49036;42.782;23.108;2022-12-07T14:28:31;-14263.16;;;6.66
62930;BMP280;49036;42.782;23.108;2022-12-07T14:30:57;-14256.41;;;6.47
62930;BMP280;49036;42.782;23.108;2022-12-07T14:33:23;-14251.25;;;6.31
62930;BMP280;49036;42.782;23.108;2022-12-07T14:35:49;-14241.56;;;6.03
62930;BMP280;49036;42.782;23.108;2022-12-07T14:38:15;-14233.97;;;5.80
62930;BMP280;49036;42.782;23.108;2022-12-07T14:40:43;-14228.09;;;5.63
62930;BMP280;49036;42.782;23.108;2022-12-07T14:43:12;-14218.41;;;5.35
62930;BMP280;49036;42.782;23.108;2022-12-07T14:45:38;-14212.03;;;5.16
62930;BMP280;49036;42.782;23.108;2022-12-07T14:48:05;-14208.75;;;5.06
62930;BMP280;49036;42.782;23.108;2022-12-07T14:50:36;-14203.91;;;4.92
62930;BMP280;49036;42.782;23.108;2022-12-07T14:53:10;-14202.00;;;4.86
62930;BMP280;49036;42.782;23.108;2022-12-07T14:55:36;-14197.69;;;4.74
62930;BMP280;49036;42.782;23.108;2022-12-07T14:58:02;-14196.47;;;4.70
62930;BMP280;49036;42.782;23.108;2022-12-07T15:00:28;-14193.19;;;4.60
62930;BMP280;49036;42.782;23.108;2022-12-07T15:02:54;-14191.81;;;4.56
62930;BMP280;49036;42.782;23.108;2022-12-07T15:05:20;-14189.91;;;4.51
62930;BMP280;49036;42.782;23.108;2022-12-07T15:07:47;-14187.50;;;4.44
62930;BMP280;49036;42.782;23.108;2022-12-07T15:10:22;-14185.94;;;4.39
62930;BMP280;49036;42.782;23.108;2022-12-07T15:12:48;-14183.19;;;4.31
62930;BMP280;49036;42.782;23.108;2022-12-07T15:15:13;-14182.50;;;4.29
62930;BMP280;49036;42.782;23.108;2022-12-07T15:17:39;-14177.47;;;4.14
62930;BMP280;49036;42.782;23.108;2022-12-07T15:20:09;-14175.41;;;4.08
62930;BMP280;49036;42.782;23.108;2022-12-07T15:22:36;-14171.97;;;3.98
62930;BMP280;49036;42.782;23.108;2022-12-07T15:25:01;-14166.59;;;3.82
62930;BMP280;49036;42.782;23.108;2022-12-07T15:27:30;-14165.06;;;3.78
62930;BMP280;49036;42.782;23.108;2022-12-07T15:29:55;-14166.44;;;3.82
62930;BMP280;49036;42.782;23.108;2022-12-07T15:32:21;-14168.31;;;3.87
62930;BMP280;49036;42.782;23.108;2022-12-07T15:34:48;-14167.47;;;3.85
62930;BMP280;49036;42.782;23.108;2022-12-07T15:37:13;-14167.28;;;3.84
62930;BMP280;49036;42.782;23.108;2022-12-07T15:39:39;-14167.97;;;3.86
62930;BMP280;49036;42.782;23.108;2022-12-07T15:42:04;-14167.97;;;3.86
62930;BMP280;49036;42.782;23.108;2022-12-07T15:44:30;-14170.41;;;3.93
62930;BMP280;49036;42.782;23.108;2022-12-07T15:47:14;-14171.44;;;3.96
62930;BMP280;49036;42.782;23.108;2022-12-07T15:49:39;-14169.88;;;3.92
62930;BMP280;49036;42.782;23.108;2022-12-07T15:52:05;-14168.50;;;3.88
62930;BMP280;49036;42.782;23.108;2022-12-07T15:54:31;-14165.56;;;3.79
62930;BMP280;49036;42.782;23.108;2022-12-07T15:56:57;-14164.34;;;3.75
62930;BMP280;49036;42.782;23.108;2022-12-07T15:59:23;-14163.31;;;3.72
62930;BMP280;49036;42.782;23.108;2022-12-07T16:01:48;-14162.28;;;3.69
62930;BMP280;49036;42.782;23.108;2022-12-07T16:04:14;-14156.94;;;3.54
62930;BMP280;49036;42.782;23.108;2022-12-07T16:06:39;-14153.81;;;3.44
62930;BMP280;49036;42.782;23.108;2022-12-07T16:09:06;-14151.75;;;3.38
62930;BMP280;49036;42.782;23.108;2022-12-07T16:11:32;-14152.63;;;3.41
62930;BMP280;49036;42.782;23.108;2022-12-07T16:13:58;-14151.59;;;3.38
62930;BMP280;49036;42.782;23.108;2022-12-07T16:16:23;-14152.78;;;3.41
62930;BMP280;49036;42.782;23.108;2022-12-07T16:18:49;-14151.94;;;3.39
62930;BMP280;49036;42.782;23.108;2022-12-07T16:21:16;-14153.47;;;3.43
62930;BMP280;49036;42.782;23.108;2022-12-07T16:23:42;-14151.75;;;3.38
62930;BMP280;49036;42.782;23.108;2022-12-07T16:26:19;-14151.41;;;3.37
62930;BMP280;49036;42.782;23.108;2022-12-07T16:28:48;-14154.00;;;3.45
62930;BMP280;49036;42.782;23.108;2022-12-07T16:31:16;-14160.38;;;3.64
62930;BMP280;49036;42.782;23.108;2022-12-07T16:33:43;-14157.28;;;3.55
62930;BMP280;49036;42.782;23.108;2022-12-07T16:36:10;-14160.38;;;3.64
62930;BMP280;49036;42.782;23.108;2022-12-07T16:38:37;-14160.72;;;3.65
62930;BMP280;49036;42.782;23.108;2022-12-07T16:41:04;-14164.69;;;3.76
62930;BMP280;49036;42.782;23.108;2022-12-07T16:43:30;-14170.75;;;3.94
62930;BMP280;49036;42.782;23.108;2022-12-07T16:45:56;-14170.75;;;3.94
62930;BMP280;49036;42.782;23.108;2022-12-07T16:48:21;-14172.66;;;4.00